Time,TemperatureF,DewpointF,PressureIn,WindDirection,WindDirectionDegrees,WindSpeedMPH,WindSpeedGustMPH,Humidity,HourlyPrecipIn,Conditions,Clouds,dailyrainin,SoftwareType,DateUTC
2013-08-07 00:00:00,74.6,60.7,29.88,South,175,0.0,0.0,62,0.00,CLR,,0.00,WeatherDisplay:10.37,2013-08-07 05:00:00,
2013-08-07 00:05:00,74.7,60.8,29.87,South,180,1.2,2.2,62,0.00,CLR,,0.00,WeatherDisplay:10.37,2013-08-07 05:05:00,
2013-08-07 00:10:00,74.8,61.4,29.87,South,180,1.2,1.2,63,0.00,CLR,,0.00,WeatherDisplay:10.37,2013-08-07 05:10:00,
2013-08-07 00:15:00,74.9,61.5,29.87,SSE,153,4.6,4.6,63,0.00,CLR,,0.00,WeatherDisplay:10.37,2013-08-07 05:15:00,
2013-08-07 00:20:00,75.0,61.5,29.87,South,176,3.5,3.5,63,0.00,CLR,,0.00,WeatherDisplay:10.37,2013-08-07 05:20:00,
2013-08-07 00:26:00,75.0,61.5,29.87,SW,218,3.0,3.0,63,0.00,CLR,,0.00,WeatherDisplay:10.37,2013-08-07 05:26:00,
2013-08-07 00:31:00,74.9,61.5,29.87,SW,217,4.0,4.0,63,0.00,CLR,,0.00,WeatherDisplay:10.37,2013-08-07 05:31:00,
2013-08-07 00:38:00,74.8,61.4,29.87,SW,217,5.8,5.8,63,0.00,CLR,,0.00,WeatherDisplay:10.37,2013-08-07 05:38:00,
2013-08-07 00:43:00,74.7,60.8,29.87,SSW,209,3.5,3.5,62,0.00,CLR,,0.00,WeatherDisplay:10.37,2013-08-07 05:43:00,
2013-08-07 00:48:00,74.5,60.6,29.87,SW,223,8.1,8.1,62,0.00,CLR,,0.00,WeatherDisplay:10.37,2013-08-07 05:48:00,
2013-08-07 00:53:00,74.3,60.4,29.87,SW,216,5.0,5.0,62,0.00,CLR,,0.00,WeatherDisplay:10.37,2013-08-07 05:53:00,
2013-08-07 00:58:00,74.2,60.3,29.87,SW,230,6.0,6.0,62,0.00,CLR,,0.00,WeatherDisplay:10.37,2013-08-07 05:58:00,
2013-08-07 01:03:00,74.1,60.7,29.87,SSW,196,10.0,10.0,63,0.00,CLR,,0.00,WeatherDisplay:10.37,2013-08-07 06:03:00,
2013-08-07 01:08:00,74.1,60.7,29.87,SSE,159,6.9,6.9,63,0.00,CLR,,0.00,WeatherDisplay:10.37,2013-08-07 06:08:00,
2013-08-07 01:13:00,74.1,60.7,29.87,SW,227,8.1,8.1,63,0.00,CLR,,0.00,WeatherDisplay:10.37,2013-08-07 06:13:00,
2013-08-07 01:19:00,74.1,60.7,29.87,SW,225,9.2,9.2,63,0.00,CLR,,0.00,WeatherDisplay:10.37,2013-08-07 06:19:00,
2013-08-07 01:24:00,74.1,60.7,29.87,SW,220,5.8,5.8,63,0.00,CLR,,0.00,WeatherDisplay:10.37,2013-08-07 06:24:00,
2013-08-07 01:29:00,74.0,60.6,29.87,SSW,213,3.5,3.5,63,0.00,CLR,,0.00,WeatherDisplay:10.37,2013-08-07 06:29:00,
2013-08-07 01:34:00,73.9,60.5,29.87,SW,236,5.0,5.0,63,0.00,CLR,,0.00,WeatherDisplay:10.37,2013-08-07 06:34:00,
2013-08-07 01:39:00,73.8,60.4,29.87,SW,214,3.5,3.5,63,0.00,CLR,,0.00,WeatherDisplay:10.37,2013-08-07 06:39:00,
2013-08-07 01:44:00,73.7,60.3,29.87,SW,217,5.8,5.8,63,0.00,CLR,,0.00,WeatherDisplay:10.37,2013-08-07 06:44:00,
2013-08-07 01:49:00,73.6,60.2,29.87,SW,230,5.8,5.8,63,0.00,CLR,,0.00,WeatherDisplay:10.37,2013-08-07 06:49:00,
2013-08-07 01:54:00,73.5,60.1,29.86,SW,221,4.6,4.6,63,0.00,CLR,,0.00,WeatherDisplay:10.37,2013-08-07 06:54:00,
2013-08-07 02:00:00,73.4,60.0,29.85,WSW,237,6.9,6.9,63,0.00,CLR,,0.00,WeatherDisplay:10.37,2013-08-07 07:00:00,
2013-08-07 02:05:00,73.4,60.0,29.85,South,188,4.6,4.6,63,0.00,CLR,,0.00,WeatherDisplay:10.37,2013-08-07 07:05:00,
2013-08-07 02:10:00,73.3,59.9,29.85,SSW,198,9.2,9.2,63,0.00,CLR,,0.00,WeatherDisplay:10.37,2013-08-07 07:10:00,
2013-08-07 02:15:00,73.3,59.9,29.85,SW,230,5.0,5.0,63,0.00,CLR,,0.00,WeatherDisplay:10.37,2013-08-07 07:15:00,
2013-08-07 02:21:00,73.2,59.8,29.85,SW,226,5.8,5.8,63,0.00,CLR,,0.00,WeatherDisplay:10.37,2013-08-07 07:21:00,
2013-08-07 02:26:00,73.1,59.8,29.85,SW,223,4.6,4.6,63,0.00,CLR,,0.00,WeatherDisplay:10.37,2013-08-07 07:26:00,
2013-08-07 02:31:00,73.1,59.8,29.85,SSW,213,4.6,4.6,63,0.00,CLR,,0.00,WeatherDisplay:10.37,2013-08-07 07:31:00,
2013-08-07 02:36:00,73.0,59.7,29.85,SW,223,4.0,4.0,63,0.00,CLR,,0.00,WeatherDisplay:10.37,2013-08-07 07:36:00,
2013-08-07 02:41:00,73.0,59.7,29.85,SW,223,5.8,5.8,63,0.00,CLR,,0.00,WeatherDisplay:10.37,2013-08-07 07:41:00,
2013-08-07 02:46:00,72.9,59.6,29.85,SSW,209,0.0,0.0,63,0.00,CLR,,0.00,WeatherDisplay:10.37,2013-08-07 07:46:00,
2013-08-07 02:51:00,72.9,59.6,29.85,SSW,211,4.6,4.6,63,0.00,CLR,,0.00,WeatherDisplay:10.37,2013-08-07 07:51:00,
2013-08-07 02:56:00,72.8,59.5,29.85,SSW,213,0.0,0.0,63,0.00,CLR,,0.00,WeatherDisplay:10.37,2013-08-07 07:56:00,
2013-08-07 03:02:00,72.6,59.3,29.85,SSW,213,3.5,3.5,63,0.00,CLR,,0.00,WeatherDisplay:10.37,2013-08-07 08:02:00,
2013-08-07 03:07:00,72.5,59.2,29.85,SW,214,1.2,1.2,63,0.00,CLR,,0.00,WeatherDisplay:10.37,2013-08-07 08:07:00,
2013-08-07 03:12:00,72.4,59.1,29.85,SSW,213,1.2,0.0,63,0.00,CLR,,0.00,WeatherDisplay:10.37,2013-08-07 08:12:00,
2013-08-07 03:17:00,72.3,59.0,29.85,SW,214,0.0,0.0,63,0.00,CLR,,0.00,WeatherDisplay:10.37,2013-08-07 08:17:00,
2013-08-07 03:22:00,72.2,58.9,29.84,SSW,201,0.0,0.0,63,0.00,CLR,,0.00,WeatherDisplay:10.37,2013-08-07 08:22:00,
2013-08-07 03:28:00,72.1,58.8,29.84,SSE,160,0.0,0.0,63,0.00,CLR,,0.00,WeatherDisplay:10.37,2013-08-07 08:28:00,
2013-08-07 03:33:00,72.0,58.7,29.84,SSE,160,0.0,0.0,63,0.00,CLR,,0.00,WeatherDisplay:10.37,2013-08-07 08:33:00,
2013-08-07 03:38:00,72.0,58.7,29.84,SSE,162,0.0,0.0,63,0.00,CLR,,0.00,WeatherDisplay:10.37,2013-08-07 08:38:00,
2013-08-07 03:43:00,72.0,58.7,29.83,SSE,161,1.2,0.0,63,0.00,CLR,,0.00,WeatherDisplay:10.37,2013-08-07 08:43:00,
2013-08-07 03:48:00,71.9,58.6,29.84,South,181,0.0,0.0,63,0.00,CLR,,0.00,WeatherDisplay:10.37,2013-08-07 08:48:00,
2013-08-07 03:53:00,72.0,58.7,29.84,South,181,0.0,0.0,63,0.00,CLR,,0.00,WeatherDisplay:10.37,2013-08-07 08:53:00,
2013-08-07 03:58:00,71.9,58.6,29.84,South,186,1.2,0.0,63,0.00,CLR,,0.00,WeatherDisplay:10.37,2013-08-07 08:58:00,
2013-08-07 04:03:00,71.9,58.6,29.83,South,169,1.2,1.2,63,0.00,CLR,,0.00,WeatherDisplay:10.37,2013-08-07 09:03:00,
2013-08-07 04:08:00,71.9,58.6,29.84,SSE,163,0.0,0.0,63,0.00,CLR,,0.00,WeatherDisplay:10.37,2013-08-07 09:08:00,
2013-08-07 04:13:00,71.9,58.6,29.84,South,171,0.0,0.0,63,0.00,CLR,,0.00,WeatherDisplay:10.37,2013-08-07 09:13:00,
2013-08-07 04:19:00,71.9,58.6,29.84,South,171,1.2,1.2,63,0.00,CLR,,0.00,WeatherDisplay:10.37,2013-08-07 09:19:00,
2013-08-07 04:24:00,71.9,58.6,29.83,SSE,153,5.8,5.8,63,0.00,CLR,,0.00,WeatherDisplay:10.37,2013-08-07 09:24:00,
2013-08-07 04:29:00,71.9,58.6,29.83,South,173,3.0,3.0,63,0.00,CLR,,0.00,WeatherDisplay:10.37,2013-08-07 09:29:00,
2013-08-07 04:34:00,72.0,58.7,29.83,South,182,6.9,6.9,63,0.00,CLR,,0.00,WeatherDisplay:10.37,2013-08-07 09:34:00,
2013-08-07 04:39:00,72.0,58.7,29.83,SSW,209,4.6,4.6,63,0.00,CLR,,0.00,WeatherDisplay:10.37,2013-08-07 09:39:00,
2013-08-07 04:44:00,72.1,58.8,29.83,SSE,165,3.5,3.5,63,0.00,CLR,,0.00,WeatherDisplay:10.37,2013-08-07 09:44:00,
2013-08-07 04:49:00,72.2,58.9,29.84,South,184,9.0,9.0,63,0.00,CLR,,0.00,WeatherDisplay:10.37,2013-08-07 09:49:00,
2013-08-07 04:55:00,72.3,59.0,29.84,SSW,197,6.9,6.9,63,0.00,CLR,,0.00,WeatherDisplay:10.37,2013-08-07 09:55:00,
2013-08-07 05:00:00,72.3,59.0,29.84,South,188,4.6,4.6,63,0.00,CLR,,0.00,WeatherDisplay:10.37,2013-08-07 10:00:00,
2013-08-07 05:05:00,72.2,58.9,29.84,South,182,6.9,6.9,63,0.00,CLR,,0.00,WeatherDisplay:10.37,2013-08-07 10:05:00,
2013-08-07 05:10:00,72.1,58.8,29.84,South,181,0.0,0.1,63,0.00,CLR,,0.00,WeatherDisplay:10.37,2013-08-07 10:10:00,
2013-08-07 05:15:00,72.1,58.8,29.83,South,180,3.5,3.5,63,0.00,CLR,,0.00,WeatherDisplay:10.37,2013-08-07 10:15:00,
2013-08-07 05:20:00,72.0,58.7,29.84,SW,222,2.3,0.0,63,0.00,CLR,,0.00,WeatherDisplay:10.37,2013-08-07 10:20:00,
2013-08-07 05:25:00,71.9,58.6,29.84,South,184,4.6,4.6,63,0.00,CLR,,0.00,WeatherDisplay:10.37,2013-08-07 10:25:00,
2013-08-07 05:30:00,71.7,58.4,29.85,SSW,205,3.5,3.5,63,0.00,CLR,,0.00,WeatherDisplay:10.37,2013-08-07 10:30:00,
2013-08-07 05:36:00,71.6,58.3,29.84,SSW,206,3.5,3.5,63,0.00,CLR,,0.00,WeatherDisplay:10.37,2013-08-07 10:36:00,
2013-08-07 05:41:00,71.5,58.2,29.84,SSW,207,0.0,0.0,63,0.00,CLR,,0.00,WeatherDisplay:10.37,2013-08-07 10:41:00,
2013-08-07 05:46:00,71.4,58.1,29.84,SSW,207,0.0,0.1,63,0.00,CLR,,0.00,WeatherDisplay:10.37,2013-08-07 10:46:00,
2013-08-07 05:52:00,71.4,58.1,29.84,SSW,207,0.0,0.0,63,0.00,CLR,,0.00,WeatherDisplay:10.37,2013-08-07 10:52:00,
2013-08-07 05:57:00,71.3,58.1,29.84,SSW,207,2.0,2.0,63,0.00,CLR,,0.00,WeatherDisplay:10.37,2013-08-07 10:57:00,
2013-08-07 06:02:00,71.3,58.1,29.84,SSW,206,3.5,3.5,63,0.00,CLR,,0.00,WeatherDisplay:10.37,2013-08-07 11:02:00,
2013-08-07 06:07:00,71.3,58.1,29.84,SSW,206,0.0,0.0,63,0.00,CLR,,0.00,WeatherDisplay:10.37,2013-08-07 11:07:00,
2013-08-07 06:12:00,71.3,58.1,29.85,SSW,206,0.0,0.0,63,0.00,CLR,,0.00,WeatherDisplay:10.37,2013-08-07 11:12:00,
2013-08-07 06:17:00,71.2,58.0,29.84,SW,228,0.0,0.0,63,0.00,CLR,,0.00,WeatherDisplay:10.37,2013-08-07 11:17:00,
2013-08-07 06:23:00,71.2,58.0,29.84,SW,228,1.2,0.0,63,0.00,CLR,,0.00,WeatherDisplay:10.37,2013-08-07 11:23:00,
2013-08-07 06:28:00,71.2,58.0,29.84,SW,227,1.2,0.0,63,0.00,CLR,,0.00,WeatherDisplay:10.37,2013-08-07 11:28:00,
2013-08-07 06:33:00,71.3,58.1,29.84,SW,228,0.0,0.0,63,0.00,CLR,,0.00,WeatherDisplay:10.37,2013-08-07 11:33:00,
2013-08-07 06:38:00,71.3,58.1,29.84,SW,228,0.0,0.0,63,0.00,CLR,,0.00,WeatherDisplay:10.37,2013-08-07 11:38:00,
2013-08-07 06:43:00,71.3,58.1,29.84,SW,228,0.0,0.0,63,0.00,CLR,,0.00,WeatherDisplay:10.37,2013-08-07 11:43:00,
2013-08-07 06:49:00,71.3,58.1,29.84,SSW,196,0.0,0.0,63,0.00,CLR,,0.00,WeatherDisplay:10.37,2013-08-07 11:49:00,
2013-08-07 06:54:00,71.3,58.1,29.85,SSW,197,0.0,0.0,63,0.00,CLR,,0.00,WeatherDisplay:10.37,2013-08-07 11:54:00,
2013-08-07 06:59:00,71.2,58.0,29.85,SSE,153,1.2,0.0,63,0.00,CLR,,0.00,WeatherDisplay:10.37,2013-08-07 11:59:00,
2013-08-07 07:04:00,71.1,57.9,29.85,South,180,1.2,0.0,63,0.00,CLR,,0.00,WeatherDisplay:10.37,2013-08-07 12:04:00,
2013-08-07 07:09:00,71.2,58.0,29.85,South,190,0.0,0.1,63,0.00,CLR,,0.00,WeatherDisplay:10.37,2013-08-07 12:09:00,
2013-08-07 07:14:00,71.4,58.1,29.85,South,190,0.0,0.0,63,0.00,CLR,,0.00,WeatherDisplay:10.37,2013-08-07 12:14:00,
2013-08-07 07:20:00,71.7,58.4,29.85,SE,146,0.0,0.0,63,0.00,CLR,,0.00,WeatherDisplay:10.37,2013-08-07 12:20:00,
2013-08-07 07:25:00,71.9,58.6,29.85,South,187,3.5,3.5,63,0.00,CLR,,0.00,WeatherDisplay:10.37,2013-08-07 12:25:00,
2013-08-07 07:30:00,72.2,58.9,29.85,SW,222,5.8,5.8,63,0.00,CLR,,0.00,WeatherDisplay:10.37,2013-08-07 12:30:00,
2013-08-07 07:35:00,72.4,59.1,29.85,SW,227,5.0,5.0,63,0.00,CLR,,0.00,WeatherDisplay:10.37,2013-08-07 12:35:00,
2013-08-07 07:40:00,72.7,59.4,29.85,SSW,198,3.5,0.0,63,0.00,CLR,,0.00,WeatherDisplay:10.37,2013-08-07 12:40:00,
2013-08-07 07:45:00,72.8,59.5,29.85,SW,217,5.8,5.8,63,0.00,CLR,,0.00,WeatherDisplay:10.37,2013-08-07 12:45:00,
2013-08-07 07:50:00,72.9,59.6,29.85,South,176,4.6,0.0,63,0.00,CLR,,0.00,WeatherDisplay:10.37,2013-08-07 12:50:00,
2013-08-07 07:55:00,73.0,59.7,29.85,South,187,3.5,3.5,63,0.00,CLR,,0.00,WeatherDisplay:10.37,2013-08-07 12:55:00,
2013-08-07 08:01:00,73.0,59.7,29.85,WSW,237,4.0,4.0,63,0.00,CLR,,0.00,WeatherDisplay:10.37,2013-08-07 13:01:00,
2013-08-07 08:06:00,73.1,59.8,29.86,SW,227,6.9,6.9,63,0.00,CLR,,0.00,WeatherDisplay:10.37,2013-08-07 13:06:00,
2013-08-07 08:11:00,73.2,59.8,29.86,SW,229,8.1,8.1,63,0.00,CLR,,0.00,WeatherDisplay:10.37,2013-08-07 13:11:00,
2013-08-07 08:16:00,73.3,59.9,29.86,SW,222,6.9,6.9,63,0.00,CLR,,0.00,WeatherDisplay:10.37,2013-08-07 13:16:00,
2013-08-07 08:21:00,73.4,60.0,29.87,SW,227,5.8,5.8,63,0.00,CLR,,0.00,WeatherDisplay:10.37,2013-08-07 13:21:00,
2013-08-07 08:27:00,73.5,60.1,29.87,SW,218,5.8,5.8,63,0.00,CLR,,0.00,WeatherDisplay:10.37,2013-08-07 13:27:00,
2013-08-07 08:32:00,73.6,60.2,29.87,SW,215,4.6,4.6,63,0.00,CLR,,0.00,WeatherDisplay:10.37,2013-08-07 13:32:00,
2013-08-07 08:37:00,73.8,60.4,29.87,SW,222,7.0,7.0,63,0.00,CLR,,0.00,WeatherDisplay:10.37,2013-08-07 13:37:00,
2013-08-07 08:42:00,73.9,60.5,29.87,SSW,205,6.9,6.9,63,0.00,CLR,,0.00,WeatherDisplay:10.37,2013-08-07 13:42:00,
2013-08-07 08:48:00,73.9,60.5,29.87,SW,219,4.0,4.0,63,0.00,CLR,,0.00,WeatherDisplay:10.37,2013-08-07 13:48:00,
2013-08-07 08:53:00,73.9,60.5,29.87,South,182,6.9,6.9,63,0.00,CLR,,0.00,WeatherDisplay:10.37,2013-08-07 13:53:00,
2013-08-07 08:58:00,73.9,60.5,29.87,SSW,199,9.2,9.2,63,0.00,CLR,,0.00,WeatherDisplay:10.37,2013-08-07 13:58:00,
2013-08-07 09:03:00,74.0,60.6,29.87,South,187,4.6,4.6,63,0.00,CLR,,0.00,WeatherDisplay:10.37,2013-08-07 14:03:00,
2013-08-07 09:08:00,74.0,60.2,29.87,SSW,206,4.6,4.6,62,0.00,CLR,,0.00,WeatherDisplay:10.37,2013-08-07 14:08:00,
2013-08-07 09:14:00,74.2,60.3,29.87,SSW,213,2.3,2.3,62,0.00,CLR,,0.00,WeatherDisplay:10.37,2013-08-07 14:14:00,
2013-08-07 09:19:00,74.2,60.3,29.87,SW,235,7.0,7.0,62,0.00,CLR,,0.00,WeatherDisplay:10.37,2013-08-07 14:19:00,
2013-08-07 09:24:00,74.3,60.4,29.87,SSW,213,9.2,9.2,62,0.00,CLR,,0.00,WeatherDisplay:10.37,2013-08-07 14:24:00,
2013-08-07 09:29:00,74.4,60.5,29.87,SSE,165,10.4,10.4,62,0.00,CLR,,0.00,WeatherDisplay:10.37,2013-08-07 14:29:00,
2013-08-07 09:34:00,74.4,60.5,29.87,SW,225,5.8,5.8,62,0.00,CLR,,0.00,WeatherDisplay:10.37,2013-08-07 14:34:00,
2013-08-07 09:39:00,74.6,60.7,29.87,SSW,213,6.9,6.9,62,0.00,CLR,,0.00,WeatherDisplay:10.37,2013-08-07 14:39:00,
2013-08-07 09:44:00,74.6,60.7,29.87,SW,226,9.2,9.2,62,0.00,CLR,,0.00,WeatherDisplay:10.37,2013-08-07 14:44:00,
2013-08-07 09:50:00,74.8,60.9,29.87,SSW,207,4.6,4.6,62,0.00,CLR,,0.00,WeatherDisplay:10.37,2013-08-07 14:50:00,
2013-08-07 09:55:00,75.1,61.2,29.87,SSW,203,6.0,6.0,62,0.00,CLR,,0.00,WeatherDisplay:10.37,2013-08-07 14:55:00,
2013-08-07 10:00:00,75.3,61.4,29.87,SSE,162,7.0,7.0,62,0.00,CLR,,0.00,WeatherDisplay:10.37,2013-08-07 15:00:00,
2013-08-07 10:05:00,75.4,61.5,29.87,SSW,200,8.1,8.1,62,0.00,CLR,,0.00,WeatherDisplay:10.37,2013-08-07 15:05:00,
2013-08-07 10:10:00,75.6,61.7,29.87,SW,218,9.2,9.2,62,0.00,CLR,,0.00,WeatherDisplay:10.37,2013-08-07 15:10:00,
2013-08-07 10:16:00,75.7,61.8,29.87,South,190,10.4,10.4,62,0.00,CLR,,0.00,WeatherDisplay:10.37,2013-08-07 15:16:00,
2013-08-07 10:21:00,75.8,61.8,29.87,SW,225,9.2,9.2,62,0.00,CLR,,0.00,WeatherDisplay:10.37,2013-08-07 15:21:00,
2013-08-07 10:26:00,75.9,61.9,29.87,SW,233,9.2,9.2,62,0.00,CLR,,0.00,WeatherDisplay:10.37,2013-08-07 15:26:00,
2013-08-07 10:31:00,76.1,62.1,29.87,SW,217,6.9,6.9,62,0.00,CLR,,0.00,WeatherDisplay:10.37,2013-08-07 15:31:00,
2013-08-07 10:36:00,76.5,62.5,29.87,SW,219,10.4,10.4,62,0.00,CLR,,0.00,WeatherDisplay:10.37,2013-08-07 15:36:00,
2013-08-07 10:41:00,76.7,62.7,29.87,SW,218,5.0,5.0,62,0.00,CLR,,0.00,WeatherDisplay:10.37,2013-08-07 15:41:00,
2013-08-07 10:46:00,77.0,63.0,29.87,SW,215,9.2,9.2,62,0.00,CLR,,0.00,WeatherDisplay:10.37,2013-08-07 15:46:00,
2013-08-07 10:51:00,77.2,63.2,29.87,South,185,6.9,6.9,62,0.00,CLR,,0.00,WeatherDisplay:10.37,2013-08-07 15:51:00,
2013-08-07 10:56:00,77.6,63.5,29.87,South,176,11.5,11.5,62,0.00,CLR,,0.00,WeatherDisplay:10.37,2013-08-07 15:56:00,
2013-08-07 11:02:00,77.7,64.1,29.87,SSW,210,6.9,6.9,63,0.00,CLR,,0.00,WeatherDisplay:10.37,2013-08-07 16:02:00,
2013-08-07 11:07:00,77.6,64.0,29.87,SW,233,10.4,10.4,63,0.00,CLR,,0.00,WeatherDisplay:10.37,2013-08-07 16:07:00,
2013-08-07 11:12:00,77.7,64.1,29.87,SW,214,10.4,10.4,63,0.00,CLR,,0.00,WeatherDisplay:10.37,2013-08-07 16:12:00,
2013-08-07 11:17:00,77.9,64.3,29.87,SW,223,11.5,11.5,63,0.00,CLR,,0.00,WeatherDisplay:10.37,2013-08-07 16:17:00,
2013-08-07 11:22:00,77.8,64.2,29.87,SW,227,8.1,8.1,63,0.00,CLR,,0.00,WeatherDisplay:10.37,2013-08-07 16:22:00,
2013-08-07 11:28:00,77.9,64.3,29.87,SSE,167,11.5,11.5,63,0.00,CLR,,0.00,WeatherDisplay:10.37,2013-08-07 16:28:00,
2013-08-07 11:33:00,78.2,64.6,29.87,SW,221,7.0,7.0,63,0.00,CLR,,0.00,WeatherDisplay:10.37,2013-08-07 16:33:00,
2013-08-07 11:38:00,78.2,64.6,29.87,SSW,198,10.4,10.4,63,0.00,CLR,,0.00,WeatherDisplay:10.37,2013-08-07 16:38:00,
2013-08-07 11:43:00,78.2,64.6,29.87,SW,234,8.1,8.1,63,0.00,CLR,,0.00,WeatherDisplay:10.37,2013-08-07 16:43:00,
2013-08-07 11:49:00,78.4,64.8,29.86,WSW,253,3.5,3.5,63,0.00,CLR,,0.00,WeatherDisplay:10.37,2013-08-07 16:49:00,
2013-08-07 11:54:00,78.7,65.0,29.86,South,176,3.5,3.5,63,0.00,CLR,,0.00,WeatherDisplay:10.37,2013-08-07 16:54:00,
2013-08-07 11:59:00,78.7,65.0,29.86,WSW,254,6.9,6.9,63,0.00,CLR,,0.00,WeatherDisplay:10.37,2013-08-07 16:59:00,
2013-08-07 12:04:00,78.7,65.5,29.86,SSW,213,5.8,5.8,64,0.00,CLR,,0.00,WeatherDisplay:10.37,2013-08-07 17:04:00,
2013-08-07 12:09:00,78.7,65.0,29.86,West,267,4.6,4.6,63,0.00,CLR,,0.00,WeatherDisplay:10.37,2013-08-07 17:09:00,
2013-08-07 12:15:00,78.7,65.0,29.86,SSW,198,3.5,3.5,63,0.00,CLR,,0.00,WeatherDisplay:10.37,2013-08-07 17:15:00,
2013-08-07 12:20:00,78.8,65.1,29.85,SSW,209,4.6,4.6,63,0.00,CLR,,0.00,WeatherDisplay:10.37,2013-08-07 17:20:00,
2013-08-07 12:25:00,78.7,65.5,29.85,SW,233,3.5,3.5,64,0.00,CLR,,0.00,WeatherDisplay:10.37,2013-08-07 17:25:00,
2013-08-07 12:30:00,78.7,65.0,29.85,West,271,0.0,0.0,63,0.00,CLR,,0.00,WeatherDisplay:10.37,2013-08-07 17:30:00,
2013-08-07 12:35:00,78.7,65.0,29.85,West,277,1.2,0.0,63,0.00,CLR,,0.00,WeatherDisplay:10.37,2013-08-07 17:35:00,
2013-08-07 12:40:00,78.7,65.0,29.85,West,277,0.0,0.0,63,0.00,CLR,,0.00,WeatherDisplay:10.37,2013-08-07 17:40:00,
2013-08-07 12:45:00,78.7,65.0,29.86,WSW,245,9.2,9.2,63,0.00,CLR,,0.00,WeatherDisplay:10.37,2013-08-07 17:45:00,
2013-08-07 12:50:00,78.7,65.0,29.86,WSW,242,1.2,0.0,63,0.00,CLR,,0.00,WeatherDisplay:10.37,2013-08-07 17:50:00,
2013-08-07 12:55:00,78.8,65.1,29.85,SW,223,5.0,5.0,63,0.00,CLR,,0.00,WeatherDisplay:10.37,2013-08-07 17:55:00,
2013-08-07 13:00:00,79.1,65.4,29.85,SW,218,4.6,4.6,63,0.00,CLR,,0.00,WeatherDisplay:10.37,2013-08-07 18:00:00,
2013-08-07 13:06:00,79.4,65.7,29.85,SW,226,5.8,5.8,63,0.00,CLR,,0.00,WeatherDisplay:10.37,2013-08-07 18:06:00,
2013-08-07 13:11:00,79.6,66.3,29.85,WSW,249,4.6,4.6,64,0.00,CLR,,0.00,WeatherDisplay:10.37,2013-08-07 18:11:00,
2013-08-07 13:16:00,80.1,66.8,29.85,SW,223,6.0,6.0,64,0.00,CLR,,0.00,WeatherDisplay:10.37,2013-08-07 18:16:00,
2013-08-07 13:21:00,80.4,67.6,29.85,SSW,210,10.4,10.4,65,0.00,CLR,,0.00,WeatherDisplay:10.37,2013-08-07 18:21:00,
2013-08-07 13:26:00,80.8,67.9,29.85,SSW,213,10.0,10.0,65,0.00,CLR,,0.00,WeatherDisplay:10.37,2013-08-07 18:26:00,
2013-08-07 13:31:00,80.9,68.5,29.85,SW,218,9.2,9.2,66,0.00,CLR,,0.00,WeatherDisplay:10.37,2013-08-07 18:31:00,
2013-08-07 13:36:00,80.7,68.3,29.84,SSW,203,5.8,5.8,66,0.00,CLR,,0.00,WeatherDisplay:10.37,2013-08-07 18:36:00,
2013-08-07 13:42:00,80.9,68.5,29.84,SSE,166,2.0,2.0,66,0.00,CLR,,0.00,WeatherDisplay:10.37,2013-08-07 18:42:00,
2013-08-07 13:47:00,81.4,68.9,29.84,WSW,242,4.6,4.6,66,0.00,CLR,,0.00,WeatherDisplay:10.37,2013-08-07 18:47:00,
2013-08-07 13:52:00,81.1,69.1,29.84,SW,230,3.5,3.5,67,0.00,CLR,,0.00,WeatherDisplay:10.37,2013-08-07 18:52:00,
2013-08-07 13:58:00,81.4,69.4,29.84,SW,229,3.5,3.5,67,0.00,CLR,,0.00,WeatherDisplay:10.37,2013-08-07 18:58:00,
2013-08-07 14:03:00,81.6,69.6,29.84,SW,215,5.0,5.0,67,0.00,CLR,,0.00,WeatherDisplay:10.37,2013-08-07 19:03:00,
2013-08-07 14:08:00,82.0,70.4,29.84,SW,217,7.0,7.0,68,0.00,CLR,,0.00,WeatherDisplay:10.37,2013-08-07 19:08:00,
2013-08-07 14:13:00,82.5,70.9,29.84,WSW,240,5.0,5.0,68,0.00,CLR,,0.00,WeatherDisplay:10.37,2013-08-07 19:13:00,
2013-08-07 14:18:00,82.5,70.9,29.84,West,271,1.2,0.0,68,0.00,CLR,,0.00,WeatherDisplay:10.37,2013-08-07 19:18:00,
2013-08-07 14:23:00,82.6,71.0,29.83,SSW,207,4.6,4.6,68,0.00,CLR,,0.00,WeatherDisplay:10.37,2013-08-07 19:23:00,
2013-08-07 14:29:00,82.2,70.6,29.84,SW,234,6.9,6.9,68,0.00,CLR,,0.00,WeatherDisplay:10.37,2013-08-07 19:29:00,
2013-08-07 14:34:00,82.0,70.4,29.83,WSW,237,1.2,1.2,68,0.00,CLR,,0.00,WeatherDisplay:10.37,2013-08-07 19:34:00,
2013-08-07 14:39:00,81.9,69.9,29.84,West,261,6.9,6.9,67,0.00,CLR,,0.00,WeatherDisplay:10.37,2013-08-07 19:39:00,
2013-08-07 14:44:00,81.4,69.4,29.83,SW,222,5.8,5.8,67,0.00,CLR,,0.00,WeatherDisplay:10.37,2013-08-07 19:44:00,
2013-08-07 14:49:00,81.2,68.8,29.83,SW,214,4.0,4.0,66,0.00,CLR,,0.00,WeatherDisplay:10.37,2013-08-07 19:49:00,
2013-08-07 14:55:00,81.3,68.9,29.83,SSW,206,5.8,5.8,66,0.00,CLR,,0.00,WeatherDisplay:10.37,2013-08-07 19:55:00,
2013-08-07 15:00:00,81.7,69.2,29.84,SSW,202,0.0,0.0,66,0.00,CLR,,0.00,WeatherDisplay:10.37,2013-08-07 20:00:00,
2013-08-07 15:05:00,82.4,70.3,29.84,WNW,303,8.1,8.1,67,0.00,CLR,,0.00,WeatherDisplay:10.37,2013-08-07 20:05:00,
2013-08-07 15:10:00,83.0,70.9,29.84,WSW,254,0.0,0.0,67,0.00,CLR,,0.00,WeatherDisplay:10.37,2013-08-07 20:10:00,
2013-08-07 15:15:00,83.1,71.0,29.84,WSW,254,6.9,6.9,67,0.00,CLR,,0.00,WeatherDisplay:10.37,2013-08-07 20:15:00,
2013-08-07 15:20:00,82.6,70.5,29.84,SW,227,5.8,5.8,67,0.00,CLR,,0.00,WeatherDisplay:10.37,2013-08-07 20:20:00,
2013-08-07 15:25:00,82.4,70.3,29.84,West,271,0.0,0.0,67,0.00,CLR,,0.00,WeatherDisplay:10.37,2013-08-07 20:25:00,
2013-08-07 15:30:00,82.1,70.1,29.84,SSW,203,6.9,6.9,67,0.00,CLR,,0.00,WeatherDisplay:10.37,2013-08-07 20:30:00,
2013-08-07 15:35:00,81.8,69.8,29.84,SW,214,6.0,6.0,67,0.00,CLR,,0.00,WeatherDisplay:10.37,2013-08-07 20:35:00,
2013-08-07 15:41:00,81.7,69.2,29.84,WSW,258,7.0,7.0,66,0.00,CLR,,0.00,WeatherDisplay:10.37,2013-08-07 20:41:00,
2013-08-07 15:46:00,81.6,69.6,29.83,SW,218,11.5,11.5,67,0.00,CLR,,0.00,WeatherDisplay:10.37,2013-08-07 20:46:00,
2013-08-07 15:51:00,81.6,69.6,29.83,SW,230,5.8,5.8,67,0.00,CLR,,0.00,WeatherDisplay:10.37,2013-08-07 20:51:00,
2013-08-07 15:56:00,82.3,70.2,29.84,WSW,246,11.5,11.5,67,0.00,CLR,,0.00,WeatherDisplay:10.37,2013-08-07 20:56:00,
2013-08-07 16:02:00,82.1,70.5,29.83,SW,217,9.2,9.2,68,0.00,CLR,,0.00,WeatherDisplay:10.37,2013-08-07 21:02:00,
2013-08-07 16:07:00,82.0,70.0,29.83,SW,221,9.2,9.2,67,0.00,CLR,,0.00,WeatherDisplay:10.37,2013-08-07 21:07:00,
2013-08-07 16:12:00,82.0,70.4,29.83,SSW,198,9.2,9.2,68,0.00,CLR,,0.00,WeatherDisplay:10.37,2013-08-07 21:12:00,
2013-08-07 16:17:00,82.1,70.5,29.83,SW,226,10.4,10.4,68,0.00,CLR,,0.00,WeatherDisplay:10.37,2013-08-07 21:17:00,
2013-08-07 16:22:00,82.3,70.7,29.83,West,260,4.0,4.0,68,0.00,CLR,,0.00,WeatherDisplay:10.37,2013-08-07 21:22:00,
2013-08-07 16:28:00,82.1,70.5,29.83,WSW,254,10.4,10.4,68,0.00,CLR,,0.00,WeatherDisplay:10.37,2013-08-07 21:28:00,
2013-08-07 16:33:00,81.8,70.2,29.83,SW,221,8.1,8.1,68,0.00,CLR,,0.00,WeatherDisplay:10.37,2013-08-07 21:33:00,
2013-08-07 16:38:00,82.0,70.4,29.83,SW,217,11.5,11.5,68,0.00,CLR,,0.00,WeatherDisplay:10.37,2013-08-07 21:38:00,
2013-08-07 16:43:00,82.3,70.7,29.83,WSW,248,6.9,6.9,68,0.00,CLR,,0.00,WeatherDisplay:10.37,2013-08-07 21:43:00,
2013-08-07 16:49:00,82.5,70.9,29.83,SSW,207,9.2,9.2,68,0.00,CLR,,0.00,WeatherDisplay:10.37,2013-08-07 21:49:00,
2013-08-07 16:54:00,82.2,70.6,29.83,SSW,211,4.6,4.6,68,0.00,CLR,,0.00,WeatherDisplay:10.37,2013-08-07 21:54:00,
2013-08-07 16:59:00,82.3,70.7,29.84,SSW,211,4.6,4.6,68,0.00,CLR,,0.00,WeatherDisplay:10.37,2013-08-07 21:59:00,
2013-08-07 17:04:00,82.2,70.6,29.83,SW,219,8.1,8.1,68,0.00,CLR,,0.00,WeatherDisplay:10.37,2013-08-07 22:04:00,
2013-08-07 17:10:00,82.0,70.4,29.83,SW,217,5.8,5.8,68,0.00,CLR,,0.00,WeatherDisplay:10.37,2013-08-07 22:10:00,
2013-08-07 17:15:00,81.8,69.8,29.83,SW,229,6.9,6.9,67,0.00,CLR,,0.00,WeatherDisplay:10.37,2013-08-07 22:15:00,
2013-08-07 17:20:00,81.6,69.6,29.83,SSW,211,6.9,6.9,67,0.00,CLR,,0.00,WeatherDisplay:10.37,2013-08-07 22:20:00,
2013-08-07 17:26:00,81.4,69.4,29.83,South,190,4.6,4.6,67,0.00,CLR,,0.00,WeatherDisplay:10.37,2013-08-07 22:26:00,
2013-08-07 17:31:00,81.2,69.2,29.83,SSW,210,4.6,4.6,67,0.00,CLR,,0.00,WeatherDisplay:10.37,2013-08-07 22:31:00,
2013-08-07 17:36:00,80.9,68.9,29.83,SW,218,5.8,5.8,67,0.00,CLR,,0.00,WeatherDisplay:10.37,2013-08-07 22:36:00,
2013-08-07 17:41:00,80.7,68.7,29.83,SW,220,4.0,4.0,67,0.00,CLR,,0.00,WeatherDisplay:10.37,2013-08-07 22:41:00,
2013-08-07 17:46:00,80.7,68.7,29.83,SW,222,4.6,4.6,67,0.00,CLR,,0.00,WeatherDisplay:10.37,2013-08-07 22:46:00,
2013-08-07 17:51:00,80.7,68.7,29.83,SW,223,4.6,4.6,67,0.00,CLR,,0.00,WeatherDisplay:10.37,2013-08-07 22:51:00,
2013-08-07 17:56:00,80.6,68.6,29.83,SW,216,6.9,6.9,67,0.00,CLR,,0.00,WeatherDisplay:10.37,2013-08-07 22:56:00,
2013-08-07 18:02:00,80.5,68.5,29.83,WSW,249,8.1,8.1,67,0.00,CLR,,0.00,WeatherDisplay:10.37,2013-08-07 23:02:00,
2013-08-07 18:07:00,80.3,68.3,29.83,SW,215,5.8,5.8,67,0.00,CLR,,0.00,WeatherDisplay:10.37,2013-08-07 23:07:00,
2013-08-07 18:12:00,80.1,67.7,29.83,WSW,238,3.5,3.5,66,0.00,CLR,,0.00,WeatherDisplay:10.37,2013-08-07 23:12:00,
2013-08-07 18:17:00,79.9,67.5,29.83,SW,222,4.0,4.0,66,0.00,CLR,,0.00,WeatherDisplay:10.37,2013-08-07 23:17:00,
2013-08-07 18:23:00,79.7,67.3,29.83,SW,227,3.5,3.5,66,0.00,CLR,,0.00,WeatherDisplay:10.37,2013-08-07 23:23:00,
2013-08-07 18:28:00,79.6,67.2,29.83,SW,222,5.8,5.8,66,0.00,CLR,,0.00,WeatherDisplay:10.37,2013-08-07 23:28:00,
2013-08-07 18:33:00,79.5,67.1,29.83,SW,221,4.6,0.0,66,0.00,CLR,,0.00,WeatherDisplay:10.37,2013-08-07 23:33:00,
2013-08-07 18:38:00,79.4,66.6,29.83,SSW,213,4.0,4.0,65,0.00,CLR,,0.00,WeatherDisplay:10.37,2013-08-07 23:38:00,
2013-08-07 18:44:00,79.2,66.4,29.84,SW,223,2.3,2.3,65,0.00,CLR,,0.00,WeatherDisplay:10.37,2013-08-07 23:44:00,
2013-08-07 18:49:00,79.1,66.3,29.84,SW,222,3.5,3.5,65,0.00,CLR,,0.00,WeatherDisplay:10.37,2013-08-07 23:49:00,
2013-08-07 18:54:00,79.0,66.2,29.84,SW,223,1.2,1.2,65,0.00,CLR,,0.00,WeatherDisplay:10.37,2013-08-07 23:54:00,
2013-08-07 18:59:00,79.0,66.2,29.84,SW,223,0.0,0.0,65,0.00,CLR,,0.00,WeatherDisplay:10.37,2013-08-07 23:59:00,
2013-08-07 19:04:00,78.9,66.1,29.84,SW,223,0.0,0.0,65,0.00,CLR,,0.00,WeatherDisplay:10.37,2013-08-08 00:04:00,
2013-08-07 19:09:00,78.9,66.1,29.84,SW,219,4.0,4.0,65,0.00,CLR,,0.00,WeatherDisplay:10.37,2013-08-08 00:09:00,
2013-08-07 19:14:00,78.8,66.0,29.84,SW,219,0.0,0.0,65,0.00,CLR,,0.00,WeatherDisplay:10.37,2013-08-08 00:14:00,
2013-08-07 19:19:00,78.7,65.9,29.85,SW,219,0.0,0.0,65,0.00,CLR,,0.00,WeatherDisplay:10.37,2013-08-08 00:19:00,
2013-08-07 19:25:00,78.7,65.5,29.85,SW,218,0.0,0.0,64,0.00,CLR,,0.00,WeatherDisplay:10.37,2013-08-08 00:25:00,
2013-08-07 19:30:00,78.7,65.5,29.85,SSW,202,1.2,0.0,64,0.00,CLR,,0.00,WeatherDisplay:10.37,2013-08-08 00:30:00,
2013-08-07 19:35:00,78.7,65.5,29.85,SSW,202,0.0,0.0,64,0.00,CLR,,0.00,WeatherDisplay:10.37,2013-08-08 00:35:00,
2013-08-07 19:40:00,78.7,65.5,29.85,SSW,205,0.0,0.0,64,0.00,CLR,,0.00,WeatherDisplay:10.37,2013-08-08 00:40:00,
2013-08-07 19:45:00,78.7,65.5,29.85,SSW,213,4.0,4.0,64,0.00,CLR,,0.00,WeatherDisplay:10.37,2013-08-08 00:45:00,
2013-08-07 19:50:00,78.6,65.4,29.85,SW,214,2.3,2.3,64,0.00,CLR,,0.00,WeatherDisplay:10.37,2013-08-08 00:50:00,
2013-08-07 19:55:00,78.4,65.2,29.85,SW,216,3.5,3.5,64,0.00,CLR,,0.00,WeatherDisplay:10.37,2013-08-08 00:55:00,
2013-08-07 20:00:00,78.3,65.1,29.85,SW,215,1.2,1.2,64,0.00,CLR,,0.00,WeatherDisplay:10.37,2013-08-08 01:00:00,
2013-08-07 20:06:00,78.2,65.0,29.85,SW,219,0.0,0.0,64,0.00,CLR,,0.00,WeatherDisplay:10.37,2013-08-08 01:06:00,
2013-08-07 20:11:00,78.1,64.5,29.84,South,178,1.0,1.0,63,0.00,CLR,,0.00,WeatherDisplay:10.37,2013-08-08 01:11:00,
2013-08-07 20:16:00,78.1,64.5,29.85,South,180,1.2,1.2,63,0.00,CLR,,0.00,WeatherDisplay:10.37,2013-08-08 01:16:00,
2013-08-07 20:21:00,78.0,64.4,29.85,SW,230,3.5,3.5,63,0.00,CLR,,0.00,WeatherDisplay:10.37,2013-08-08 01:21:00,
2013-08-07 20:27:00,77.9,64.3,29.86,SW,226,0.0,0.0,63,0.00,CLR,,0.00,WeatherDisplay:10.37,2013-08-08 01:27:00,
2013-08-07 20:32:00,77.9,64.3,29.86,SSW,205,3.5,0.0,63,0.00,CLR,,0.00,WeatherDisplay:10.37,2013-08-08 01:32:00,
2013-08-07 20:37:00,77.8,64.2,29.86,SSW,207,4.0,4.0,63,0.00,CLR,,0.00,WeatherDisplay:10.37,2013-08-08 01:37:00,
2013-08-07 20:42:00,77.6,64.0,29.86,SSW,207,1.0,0.0,63,0.00,CLR,,0.00,WeatherDisplay:10.37,2013-08-08 01:42:00,
2013-08-07 20:47:00,77.6,63.5,29.86,SW,215,4.6,0.0,62,0.00,CLR,,0.00,WeatherDisplay:10.37,2013-08-08 01:47:00,
2013-08-07 20:52:00,77.5,63.5,29.86,SW,215,0.0,0.0,62,0.00,CLR,,0.00,WeatherDisplay:10.37,2013-08-08 01:52:00,
2013-08-07 20:58:00,77.4,63.4,29.86,SW,215,1.2,1.2,62,0.00,CLR,,0.00,WeatherDisplay:10.37,2013-08-08 01:58:00,
2013-08-07 21:03:00,77.3,63.3,29.86,SW,217,0.0,0.0,62,0.00,CLR,,0.00,WeatherDisplay:10.37,2013-08-08 02:03:00,
2013-08-07 21:08:00,77.3,63.3,29.87,SW,217,0.0,0.0,62,0.00,CLR,,0.00,WeatherDisplay:10.37,2013-08-08 02:08:00,
2013-08-07 21:13:00,77.2,63.2,29.87,SW,217,0.0,0.1,62,0.00,CLR,,0.00,WeatherDisplay:10.37,2013-08-08 02:13:00,
2013-08-07 21:18:00,77.2,63.2,29.87,SW,217,1.2,0.0,62,0.00,CLR,,0.00,WeatherDisplay:10.37,2013-08-08 02:18:00,
2013-08-07 21:23:00,77.1,63.1,29.88,SW,217,0.0,0.0,62,0.00,CLR,,0.00,WeatherDisplay:10.37,2013-08-08 02:23:00,
2013-08-07 21:29:00,77.1,63.1,29.88,SW,217,0.0,0.0,62,0.00,CLR,,0.00,WeatherDisplay:10.37,2013-08-08 02:29:00,
2013-08-07 21:34:00,77.0,63.0,29.88,SW,217,0.0,0.0,62,0.00,CLR,,0.00,WeatherDisplay:10.37,2013-08-08 02:34:00,
2013-08-07 21:39:00,77.0,63.0,29.88,SW,217,0.0,0.0,62,0.00,CLR,,0.00,WeatherDisplay:10.37,2013-08-08 02:39:00,
2013-08-07 21:44:00,77.0,63.0,29.88,SW,217,0.0,0.0,62,0.00,CLR,,0.00,WeatherDisplay:10.37,2013-08-08 02:44:00,
2013-08-07 21:49:00,77.0,63.0,29.88,SW,217,0.0,0.0,62,0.00,CLR,,0.00,WeatherDisplay:10.37,2013-08-08 02:49:00,
2013-08-07 21:55:00,76.9,62.9,29.89,SW,217,0.0,0.0,62,0.00,CLR,,0.00,WeatherDisplay:10.37,2013-08-08 02:55:00,
2013-08-07 22:00:00,76.9,62.9,29.88,SW,217,0.0,0.0,62,0.00,CLR,,0.00,WeatherDisplay:10.37,2013-08-08 03:00:00,
2013-08-07 22:05:00,76.8,62.8,29.88,SW,217,0.0,0.0,62,0.00,CLR,,0.00,WeatherDisplay:10.37,2013-08-08 03:05:00,
2013-08-07 22:10:00,76.6,62.6,29.88,SW,217,0.0,0.0,62,0.00,CLR,,0.00,WeatherDisplay:10.37,2013-08-08 03:10:00,
2013-08-07 22:15:00,76.5,62.5,29.88,SW,217,0.0,0.0,62,0.00,CLR,,0.00,WeatherDisplay:10.37,2013-08-08 03:15:00,
2013-08-07 22:20:00,76.5,62.5,29.88,SW,217,0.0,0.0,62,0.00,CLR,,0.00,WeatherDisplay:10.37,2013-08-08 03:20:00,
2013-08-07 22:26:00,76.4,62.4,29.88,SW,217,0.0,0.0,62,0.00,CLR,,0.00,WeatherDisplay:10.37,2013-08-08 03:26:00,
2013-08-07 22:31:00,76.3,62.3,29.88,SW,217,0.0,0.0,62,0.00,CLR,,0.00,WeatherDisplay:10.37,2013-08-08 03:31:00,
2013-08-07 22:36:00,76.2,62.2,29.88,SW,217,0.0,0.0,62,0.00,CLR,,0.00,WeatherDisplay:10.37,2013-08-08 03:36:00,
2013-08-07 22:42:00,76.0,62.0,29.88,SW,217,0.0,0.0,62,0.00,CLR,,0.00,WeatherDisplay:10.37,2013-08-08 03:42:00,
2013-08-07 22:47:00,75.8,61.8,29.88,SW,217,0.0,0.0,62,0.00,CLR,,0.00,WeatherDisplay:10.37,2013-08-08 03:47:00,
2013-08-07 22:52:00,75.7,61.8,29.89,SW,217,0.0,0.0,62,0.00,CLR,,0.00,WeatherDisplay:10.37,2013-08-08 03:52:00,
2013-08-07 22:57:00,75.6,61.7,29.89,SW,217,0.0,0.0,62,0.00,CLR,,0.00,WeatherDisplay:10.37,2013-08-08 03:57:00,
2013-08-07 23:01:00,75.5,61.6,29.89,SW,217,0.0,0.0,62,0.00,CLR,,0.00,WeatherDisplay:10.37,2013-08-08 04:01:00,
2013-08-07 23:02:00,75.5,61.6,29.89,SW,217,0.0,0.0,62,0.00,CLR,,0.00,WeatherDisplay:10.37,2013-08-08 04:02:00,
2013-08-07 23:03:00,75.5,61.6,29.89,SW,217,0.0,0.0,62,0.00,CLR,,0.00,WeatherDisplay:10.37,2013-08-08 04:03:00,
2013-08-07 23:08:00,75.4,61.5,29.89,SW,217,0.0,0.0,62,0.00,CLR,,0.00,WeatherDisplay:10.37,2013-08-08 04:08:00,
2013-08-07 23:13:00,75.3,61.4,29.89,SW,217,0.0,0.0,62,0.00,CLR,,0.00,WeatherDisplay:10.37,2013-08-08 04:13:00,
2013-08-07 23:18:00,75.3,61.4,29.89,SW,217,0.0,0.0,62,0.00,CLR,,0.00,WeatherDisplay:10.37,2013-08-08 04:18:00,
2013-08-07 23:23:00,75.3,61.4,29.89,SW,217,0.0,0.0,62,0.00,CLR,,0.00,WeatherDisplay:10.37,2013-08-08 04:23:00,
2013-08-07 23:28:00,75.1,61.2,29.89,SW,217,0.0,0.0,62,0.00,CLR,,0.00,WeatherDisplay:10.37,2013-08-08 04:28:00,
2013-08-07 23:33:00,75.0,61.1,29.89,SW,217,0.0,0.0,62,0.00,CLR,,0.00,WeatherDisplay:10.37,2013-08-08 04:33:00,
2013-08-07 23:38:00,74.9,61.0,29.89,SW,217,0.0,0.0,62,0.00,CLR,,0.00,WeatherDisplay:10.37,2013-08-08 04:38:00,
2013-08-07 23:44:00,74.8,60.9,29.89,SW,217,0.0,0.0,62,0.00,CLR,,0.00,WeatherDisplay:10.37,2013-08-08 04:44:00,
2013-08-07 23:49:00,74.7,60.8,29.90,SW,217,0.0,0.0,62,0.00,CLR,,0.00,WeatherDisplay:10.37,2013-08-08 04:49:00,
2013-08-07 23:54:00,74.7,60.8,29.89,SW,217,0.0,0.0,62,0.00,CLR,,0.00,WeatherDisplay:10.37,2013-08-08 04:54:00,